Demetrios — A8UI5 — position and weather

sailwx.info

Track history (hours):
 
Tides and Currents Weather Stations Pressure Air Temp Water Temp Dewpoint Dewpoint Depression Visibility Wind Speed Wind Dir Waves Ship Positions

Demetrios

Last reported at 2018-Feb-15 23:01 UTC. Time now 2018-Feb-19 06:28 UTC.
Position S 30°55' E 031°21'.

Length 274 m; draft 9.5 m.

Type: Tanker. MMSI: 636014500.

Date/timePositionNaut miles runAvg speedWind from/ knotsBaromVisibWave heightAir tempDewpointWater temp
2018-Feb-15 23:01S 30°55' E 031°21'511.5
2018-Feb-15 22:34S 30°50' E 031°23'1111.3
2018-Feb-15 21:38S 30°41' E 031°30'411.0
2018-Feb-15 21:15S 30°37' E 031°32'310.9
2018-Feb-15 20:59S 30°35' E 031°33'610.5
2018-Feb-15 20:26S 30°29' E 031°35'610.4
2018-Feb-15 19:51S 30°23' E 031°35'410.6
2018-Feb-15 19:30S 30°19' E 031°35'510.8
2018-Feb-15 19:00S 30°14' E 031°35'510.7
2018-Feb-15 18:30S 30°09' E 031°34'510.6
2018-Feb-15 18:00S 30°03' E 031°34'4 8.6
2018-Feb-15 17:29S 29°59' E 031°31'3 7.1
2018-Feb-15 17:00S 29°59' E 031°27'4 7.8
2018-Feb-15 16:29S 29°57' E 031°23'4 9.1
2018-Feb-15 16:00S 29°54' E 031°19'5 9.4
2018-Feb-15 15:30S 29°53' E 031°14'4 8.4
2018-Feb-15 15:00S 29°52' E 031°09'1 2.3
2018-Feb-15 14:30S 29°51' E 031°08'0 0.3
2018-Feb-15 14:00S 29°51' E 031°08'0 0.5
2018-Feb-15 13:30S 29°51' E 031°09'0 0.8
2018-Feb-15 13:00S 29°51' E 031°08'0 0.9
2018-Feb-15 12:30S 29°51' E 031°08'1 1.1
2018-Feb-15 12:00S 29°50' E 031°08'0 0.6
2018-Feb-15 11:30S 29°50' E 031°09'0 0.5
2018-Feb-15 11:00S 29°50' E 031°09'1 2.2
2018-Feb-15 10:30S 29°50' E 031°10'2 4.6
2018-Feb-15 10:00S 29°52' E 031°12'3 5.9
2018-Feb-15 09:30S 29°55' E 031°11'4 7.3
2018-Feb-15 09:00S 29°58' E 031°09'4 7.3
2018-Feb-15 08:30S 29°60' E 031°06'5 6.9
2018-Feb-15 07:49S 30°01' E 031°01'1 4.3
2018-Feb-15 07:30S 30°01' E 030°59'1 1.6
2018-Feb-15 07:00S 30°01' E 030°58'0 0.1
2018-Feb-15 06:25S 30°01' E 030°58'0 0.0
2018-Feb-15 05:58S 30°01' E 030°58'0 0.1
2018-Feb-15 05:28S 30°00' E 030°58'0 0.0
2018-Feb-15 04:58S 30°00' E 030°58'0 0.1
2018-Feb-15 04:28S 30°01' E 030°58'0 0.0
2018-Feb-15 03:58S 30°01' E 030°58'0 0.0
2018-Feb-15 03:28S 30°01' E 030°58'0 0.0
2018-Feb-15 02:55S 30°01' E 030°58'0 0.0
2018-Feb-15 02:28S 30°01' E 030°58'0 0.0
2018-Feb-15 01:58S 30°01' E 030°58'0 0.1
2018-Feb-15 01:28S 30°01' E 030°58'0 0.0
2018-Feb-15 00:58S 30°01' E 030°58'0 0.0
2018-Feb-15 00:28S 30°01' E 030°58'0 0.0
2018-Feb-14 23:55S 30°01' E 030°58'0 0.0
2018-Feb-14 23:25S 30°01' E 030°58'0 0.0
2018-Feb-14 22:55S 30°01' E 030°58'0 0.0
2018-Feb-14 22:25S 30°01' E 030°58'0 0.0
2018-Feb-14 21:58S 30°01' E 030°58'0 0.0
2018-Feb-14 21:28S 30°01' E 030°58'0 0.0
2018-Feb-14 20:58S 30°01' E 030°58'0 0.0
2018-Feb-14 20:25S 30°01' E 030°58'0 0.0
2018-Feb-14 19:58S 30°01' E 030°58'0 0.0
2018-Feb-14 19:25S 30°01' E 030°58'0 0.0
2018-Feb-14 18:58S 30°01' E 030°58'0 0.0
2018-Feb-14 18:25S 30°01' E 030°58'0 0.0
2018-Feb-14 17:58S 30°01' E 030°58'0 0.0
2018-Feb-14 17:28S 30°01' E 030°58'0 0.0
2018-Feb-14 16:58S 30°01' E 030°58'0 0.0
2018-Feb-14 16:28S 30°01' E 030°58'0 0.0
2018-Feb-14 15:55S 30°01' E 030°58'0 0.0
2018-Feb-14 15:28S 30°01' E 030°58'0 0.0
2018-Feb-14 14:58S 30°01' E 030°58'0 0.0
2018-Feb-14 14:28S 30°01' E 030°58'0 0.0
2018-Feb-14 13:58S 30°01' E 030°58'0 0.0
2018-Feb-14 13:28S 30°01' E 030°58'0 0.1
2018-Feb-14 12:58S 30°01' E 030°58'0 0.0
2018-Feb-14 12:28S 30°01' E 030°58'0 0.0
2018-Feb-14 11:55S 30°01' E 030°58'0 0.0
2018-Feb-14 11:28S 30°01' E 030°58'0 0.0
2018-Feb-14 10:58S 30°01' E 030°58'0 0.0
2018-Feb-14 10:25S 30°01' E 030°58'0 0.0
2018-Feb-14 09:58S 30°01' E 030°58'0 0.0
2018-Feb-14 09:28S 30°01' E 030°58'0 0.0
2018-Feb-14 08:58S 30°01' E 030°58'0 0.0
2018-Feb-14 08:19S 30°01' E 030°58'0 0.0
2018-Feb-14 07:49S 30°00' E 030°58'0 0.1
2018-Feb-14 07:28S 30°01' E 030°58'0 0.0
2018-Feb-14 06:58S 30°01' E 030°58'0 0.1
2018-Feb-14 06:31S 30°01' E 030°58'0 1.0
2018-Feb-14 05:59S 30°01' E 030°58'2 4.4
2018-Feb-14 05:31S 30°00' E 031°00'1 2.1
2018-Feb-14 05:01S 30°00' E 031°02'1 1.2
2018-Feb-14 04:31S 30°01' E 031°01'0 0.3
2018-Feb-14 04:00S 30°01' E 031°01'0 0.9
2018-Feb-14 03:30S 30°01' E 031°01'3 5.3
2018-Feb-14 03:00S 30°04' E 031°01'3 5.9
2018-Feb-14 02:30S 30°07' E 031°01'2 4.9
2018-Feb-14 02:01S 30°09' E 031°00'4 7.5
2018-Feb-14 01:30S 30°13' E 031°00'3 6.2
2018-Feb-14 01:00S 30°16' E 031°00'3 6.1
2018-Feb-14 00:30S 30°19' E 031°00'3 6.4
2018-Feb-14 00:00S 30°22' E 031°00'4 7.4
2018-Feb-13 23:30S 30°26' E 031°00'4 7.7
2018-Feb-13 23:00S 30°30' E 031°00'4 7.6
2018-Feb-13 22:30S 30°33' E 031°00'4 7.9
2018-Feb-13 22:00S 30°37' E 031°00'3 6.3
2018-Feb-13 21:30S 30°41' E 031°00'3 5.3
2018-Feb-13 21:00S 30°43' E 030°60'18 6.4
2018-Feb-13 18:11S 31°01' E 030°59'15 9.1
2018-Feb-13 16:31S 31°15' E 030°52'0 6.4
2018-Feb-13 16:30S 31°15' E 030°52'4 7.1
2018-Feb-13 16:00S 31°19' E 030°51'  
Track history (hours):
 
Tides and Currents Weather Stations Pressure Air Temp Water Temp Dewpoint Dewpoint Depression Visibility Wind Speed Wind Dir Waves Ship Positions

Demetrios

Last reported at 2018-Feb-15 23:01 UTC. Time now 2018-Feb-19 06:28 UTC.
Position S 30°55' E 031°21'.

Length 274 m; draft 9.5 m.

Type: Tanker. MMSI: 636014500.

Date/timePositionNaut miles runAvg speedWind from/ knotsBaromVisibWave heightAir tempDewpointWater temp
2018-Feb-15 23:01S 30°55' E 031°21'511.5
2018-Feb-15 22:34S 30°50' E 031°23'1111.3
2018-Feb-15 21:38S 30°41' E 031°30'411.0
2018-Feb-15 21:15S 30°37' E 031°32'310.9
2018-Feb-15 20:59S 30°35' E 031°33'610.5
2018-Feb-15 20:26S 30°29' E 031°35'610.4
2018-Feb-15 19:51S 30°23' E 031°35'410.6
2018-Feb-15 19:30S 30°19' E 031°35'510.8
2018-Feb-15 19:00S 30°14' E 031°35'510.7
2018-Feb-15 18:30S 30°09' E 031°34'510.6
2018-Feb-15 18:00S 30°03' E 031°34'4 8.6
2018-Feb-15 17:29S 29°59' E 031°31'3 7.1
2018-Feb-15 17:00S 29°59' E 031°27'4 7.8
2018-Feb-15 16:29S 29°57' E 031°23'4 9.1
2018-Feb-15 16:00S 29°54' E 031°19'5 9.4
2018-Feb-15 15:30S 29°53' E 031°14'4 8.4
2018-Feb-15 15:00S 29°52' E 031°09'1 2.3
2018-Feb-15 14:30S 29°51' E 031°08'0 0.3
2018-Feb-15 14:00S 29°51' E 031°08'0 0.5
2018-Feb-15 13:30S 29°51' E 031°09'0 0.8
2018-Feb-15 13:00S 29°51' E 031°08'0 0.9
2018-Feb-15 12:30S 29°51' E 031°08'1 1.1
2018-Feb-15 12:00S 29°50' E 031°08'0 0.6
2018-Feb-15 11:30S 29°50' E 031°09'0 0.5
2018-Feb-15 11:00S 29°50' E 031°09'1 2.2
2018-Feb-15 10:30S 29°50' E 031°10'2 4.6
2018-Feb-15 10:00S 29°52' E 031°12'3 5.9
2018-Feb-15 09:30S 29°55' E 031°11'4 7.3
2018-Feb-15 09:00S 29°58' E 031°09'4 7.3
2018-Feb-15 08:30S 29°60' E 031°06'5 6.9
2018-Feb-15 07:49S 30°01' E 031°01'1 4.3
2018-Feb-15 07:30S 30°01' E 030°59'1 1.6
2018-Feb-15 07:00S 30°01' E 030°58'0 0.1
2018-Feb-15 06:25S 30°01' E 030°58'0 0.0
2018-Feb-15 05:58S 30°01' E 030°58'0 0.1
2018-Feb-15 05:28S 30°00' E 030°58'0 0.0
2018-Feb-15 04:58S 30°00' E 030°58'0 0.1
2018-Feb-15 04:28S 30°01' E 030°58'0 0.0
2018-Feb-15 03:58S 30°01' E 030°58'0 0.0
2018-Feb-15 03:28S 30°01' E 030°58'0 0.0
2018-Feb-15 02:55S 30°01' E 030°58'0 0.0
2018-Feb-15 02:28S 30°01' E 030°58'0 0.0
2018-Feb-15 01:58S 30°01' E 030°58'0 0.1
2018-Feb-15 01:28S 30°01' E 030°58'0 0.0
2018-Feb-15 00:58S 30°01' E 030°58'0 0.0
2018-Feb-15 00:28S 30°01' E 030°58'0 0.0
2018-Feb-14 23:55S 30°01' E 030°58'0 0.0
2018-Feb-14 23:25S 30°01' E 030°58'0 0.0
2018-Feb-14 22:55S 30°01' E 030°58'0 0.0
2018-Feb-14 22:25S 30°01' E 030°58'0 0.0
2018-Feb-14 21:58S 30°01' E 030°58'0 0.0
2018-Feb-14 21:28S 30°01' E 030°58'0 0.0
2018-Feb-14 20:58S 30°01' E 030°58'0 0.0
2018-Feb-14 20:25S 30°01' E 030°58'0 0.0
2018-Feb-14 19:58S 30°01' E 030°58'0 0.0
2018-Feb-14 19:25S 30°01' E 030°58'0 0.0
2018-Feb-14 18:58S 30°01' E 030°58'0 0.0
2018-Feb-14 18:25S 30°01' E 030°58'0 0.0
2018-Feb-14 17:58S 30°01' E 030°58'0 0.0
2018-Feb-14 17:28S 30°01' E 030°58'0 0.0
2018-Feb-14 16:58S 30°01' E 030°58'0 0.0
2018-Feb-14 16:28S 30°01' E 030°58'0 0.0
2018-Feb-14 15:55S 30°01' E 030°58'0 0.0
2018-Feb-14 15:28S 30°01' E 030°58'0 0.0
2018-Feb-14 14:58S 30°01' E 030°58'0 0.0
2018-Feb-14 14:28S 30°01' E 030°58'0 0.0
2018-Feb-14 13:58S 30°01' E 030°58'0 0.0
2018-Feb-14 13:28S 30°01' E 030°58'0 0.1
2018-Feb-14 12:58S 30°01' E 030°58'0 0.0
2018-Feb-14 12:28S 30°01' E 030°58'0 0.0
2018-Feb-14 11:55S 30°01' E 030°58'0 0.0
2018-Feb-14 11:28S 30°01' E 030°58'0 0.0
2018-Feb-14 10:58S 30°01' E 030°58'0 0.0
2018-Feb-14 10:25S 30°01' E 030°58'0 0.0
2018-Feb-14 09:58S 30°01' E 030°58'0 0.0
2018-Feb-14 09:28S 30°01' E 030°58'0 0.0
2018-Feb-14 08:58S 30°01' E 030°58'0 0.0
2018-Feb-14 08:19S 30°01' E 030°58'0 0.0
2018-Feb-14 07:49S 30°00' E 030°58'0 0.1
2018-Feb-14 07:28S 30°01' E 030°58'0 0.0
2018-Feb-14 06:58S 30°01' E 030°58'0 0.1
2018-Feb-14 06:31S 30°01' E 030°58'0 1.0
2018-Feb-14 05:59S 30°01' E 030°58'2 4.4
2018-Feb-14 05:31S 30°00' E 031°00'1 2.1
2018-Feb-14 05:01S 30°00' E 031°02'1 1.2
2018-Feb-14 04:31S 30°01' E 031°01'0 0.3
2018-Feb-14 04:00S 30°01' E 031°01'0 0.9
2018-Feb-14 03:30S 30°01' E 031°01'3 5.3
2018-Feb-14 03:00S 30°04' E 031°01'3 5.9
2018-Feb-14 02:30S 30°07' E 031°01'2 4.9
2018-Feb-14 02:01S 30°09' E 031°00'4 7.5
2018-Feb-14 01:30S 30°13' E 031°00'3 6.2
2018-Feb-14 01:00S 30°16' E 031°00'3 6.1
2018-Feb-14 00:30S 30°19' E 031°00'3 6.4
2018-Feb-14 00:00S 30°22' E 031°00'4 7.4
2018-Feb-13 23:30S 30°26' E 031°00'4 7.7
2018-Feb-13 23:00S 30°30' E 031°00'4 7.6
2018-Feb-13 22:30S 30°33' E 031°00'4 7.9
2018-Feb-13 22:00S 30°37' E 031°00'3 6.3
2018-Feb-13 21:30S 30°41' E 031°00'3 5.3
2018-Feb-13 21:00S 30°43' E 030°60'18 6.4
2018-Feb-13 18:11S 31°01' E 030°59'15 9.1
2018-Feb-13 16:31S 31°15' E 030°52'0 6.4
2018-Feb-13 16:30S 31°15' E 030°52'4 7.1
2018-Feb-13 16:00S 31°19' E 030°51'  

Dump ship's entire track history